< < Back
Terminal Aerodrome Forecast


Current Version              Previous Versions:   1  2  3  4  5  6  7  8  9  

Terminal Aerodrome Forecast

155
FTUS44 KMRX 290526
TAFCHA
TAF
KCHA 290526Z 2906/3006 00000KT P6SM SCT120 BKN250
     FM291500 34006KT P6SM SCT060 BKN150
     FM300000 VRB03KT P6SM FEW070 SCT150=

Latest METAR

834
SAUS80 KWBC 291100 CCA
MTRCHA
METAR KCHA 291053Z 00000KT 9SM SCT130 BKN250 18/17 A3013 RMK AO2 SLP195
T01830167


USA.gov is the U.S. government's official web portal to all federal, state and local government web resources and services.